createdAt,value
2017-08-21T00:01:14.281Z,13.70
2017-08-21T00:03:42.738Z,7.07
2017-08-21T00:06:11.086Z,5.77
2017-08-21T00:08:39.545Z,5.33
2017-08-21T00:11:07.895Z,6.00
2017-08-21T00:13:36.253Z,5.80
2017-08-21T00:16:04.816Z,6.47
2017-08-21T00:18:33.299Z,4.50
2017-08-21T00:21:01.678Z,12.70
2017-08-21T00:23:30.038Z,5.50
2017-08-21T00:25:58.399Z,10.40
2017-08-21T00:28:26.789Z,11.17
2017-08-21T00:30:55.283Z,8.73
2017-08-21T00:33:23.657Z,7.97
2017-08-21T00:35:51.998Z,5.53
2017-08-21T00:38:21.125Z,8.33
2017-08-21T00:40:49.486Z,7.70
2017-08-21T00:43:17.826Z,6.83
2017-08-21T00:45:46.354Z,6.60
2017-08-21T00:48:14.730Z,5.77
2017-08-21T00:50:42.800Z,12.40
2017-08-21T00:53:11.141Z,9.27
2017-08-21T00:55:39.605Z,7.47
2017-08-21T00:58:07.962Z,5.57
2017-08-21T01:00:35.630Z,8.17
2017-08-21T01:03:03.975Z,5.40
2017-08-21T01:05:33.106Z,10.23
2017-08-21T01:08:01.474Z,8.90
2017-08-21T01:10:30.113Z,6.53
2017-08-21T01:12:58.576Z,5.43
2017-08-21T01:15:26.930Z,9.23
2017-08-21T01:17:55.298Z,5.93
2017-08-21T01:20:23.646Z,9.03
2017-08-21T01:22:52.020Z,5.97
2017-08-21T01:25:20.369Z,6.63
2017-08-21T01:27:48.846Z,9.47
2017-08-21T01:30:17.191Z,8.27
2017-08-21T01:32:46.319Z,8.77
2017-08-21T01:35:14.894Z,6.93
2017-08-21T01:37:43.234Z,9.30
2017-08-21T01:40:12.557Z,7.10
2017-08-21T01:42:40.988Z,8.90
2017-08-21T01:45:09.346Z,10.03
2017-08-21T01:47:37.698Z,8.70
2017-08-21T01:50:06.044Z,8.47
2017-08-21T01:52:34.408Z,8.53
2017-08-21T01:55:02.973Z,12.30
2017-08-21T01:57:31.405Z,7.27
2017-08-21T02:00:00.087Z,10.43
2017-08-21T02:02:28.441Z,10.43
2017-08-21T02:04:57.681Z,9.03
2017-08-21T02:07:26.051Z,7.47
2017-08-21T02:09:54.415Z,8.10
2017-08-21T02:12:22.786Z,8.50
2017-08-21T02:14:51.117Z,7.50
2017-08-21T02:17:19.478Z,9.53
2017-08-21T02:19:48.023Z,8.20
2017-08-21T02:22:16.442Z,9.00
2017-08-21T02:24:45.002Z,10.20
2017-08-21T02:27:13.450Z,9.50
2017-08-21T02:29:41.825Z,11.57
2017-08-21T02:32:10.178Z,8.43
2017-08-21T02:34:38.526Z,9.97
2017-08-21T02:37:06.894Z,8.93
2017-08-21T02:39:35.432Z,8.93
2017-08-21T02:42:03.875Z,10.77
2017-08-21T02:44:32.224Z,10.40
2017-08-21T02:47:01.276Z,6.83
2017-08-21T02:49:29.630Z,7.30
2017-08-21T02:51:58.002Z,10.27
2017-08-21T02:54:26.359Z,6.03
2017-08-21T02:56:54.368Z,9.30
2017-08-21T02:59:22.726Z,9.97
2017-08-21T03:01:51.119Z,9.77
2017-08-21T03:04:19.478Z,7.53
2017-08-21T03:06:47.975Z,7.47
2017-08-21T03:09:16.453Z,10.60
2017-08-21T03:11:44.952Z,9.60
2017-08-21T03:14:13.325Z,11.40
2017-08-21T03:16:41.682Z,8.87
2017-08-21T03:19:10.021Z,10.13
2017-08-21T03:21:38.388Z,7.67
2017-08-21T03:24:06.738Z,7.30
2017-08-21T03:26:35.085Z,9.07
2017-08-21T03:29:03.561Z,7.13
2017-08-21T03:31:32.137Z,10.80
2017-08-21T03:34:00.621Z,13.90
2017-08-21T03:36:28.967Z,10.30
2017-08-21T03:38:57.313Z,8.00
2017-08-21T03:41:25.667Z,8.60
2017-08-21T03:43:54.171Z,12.07
2017-08-21T03:46:22.528Z,9.07
2017-08-21T03:48:50.883Z,9.90
2017-08-21T03:51:19.354Z,9.33
2017-08-21T03:53:47.714Z,9.90
2017-08-21T03:56:16.209Z,9.97
2017-08-21T03:58:44.554Z,9.63
2017-08-21T04:01:12.960Z,14.27
2017-08-21T04:03:41.302Z,12.10
2017-08-21T04:06:09.742Z,9.53
2017-08-21T04:08:38.102Z,13.73
2017-08-21T04:11:06.674Z,8.30
2017-08-21T04:13:35.013Z,10.50
2017-08-21T04:16:03.379Z,8.07
2017-08-21T04:18:31.713Z,7.50
2017-08-21T04:21:00.082Z,11.30
2017-08-21T04:23:28.462Z,12.00
2017-08-21T04:25:56.890Z,8.90
2017-08-21T04:28:25.234Z,9.83
2017-08-21T04:30:53.811Z,7.60
2017-08-21T04:33:22.151Z,8.23
2017-08-21T04:35:50.662Z,10.70
2017-08-21T04:38:19.023Z,13.53
2017-08-21T04:40:47.613Z,18.00
2017-08-21T04:43:16.067Z,10.33
2017-08-21T04:45:44.443Z,7.43
2017-08-21T04:48:12.905Z,16.90
2017-08-21T04:50:41.349Z,12.83
2017-08-21T04:53:09.707Z,11.50
2017-08-21T04:55:38.150Z,12.03
2017-08-21T04:58:06.627Z,11.23
2017-08-21T05:00:35.003Z,10.30
2017-08-21T05:03:03.352Z,14.80
2017-08-21T05:05:31.702Z,15.70
2017-08-21T05:08:00.075Z,11.17
2017-08-21T05:10:28.507Z,10.43
2017-08-21T05:12:56.862Z,11.97
2017-08-21T05:15:25.218Z,13.17
2017-08-21T05:17:53.779Z,11.37
2017-08-21T05:20:22.125Z,8.17
2017-08-21T05:22:50.502Z,12.70
2017-08-21T05:25:19.361Z,13.53
2017-08-21T05:27:47.714Z,8.97
2017-08-21T05:30:16.066Z,20.20
2017-08-21T05:32:44.423Z,9.77
2017-08-21T05:35:12.803Z,11.07
2017-08-21T05:37:41.174Z,11.20
2017-08-21T05:40:11.167Z,9.73
2017-08-21T05:42:39.597Z,12.80
2017-08-21T05:45:07.963Z,9.20
2017-08-21T05:47:36.342Z,9.07
2017-08-21T05:50:04.902Z,8.33
2017-08-21T05:52:33.247Z,8.70
2017-08-21T05:55:01.603Z,11.10
2017-08-21T05:57:30.912Z,11.40
2017-08-21T05:59:59.404Z,10.67
2017-08-21T06:02:27.745Z,10.10
2017-08-21T06:04:56.106Z,11.07
2017-08-21T06:07:24.469Z,16.93
2017-08-21T06:09:52.830Z,10.40
2017-08-21T06:12:21.418Z,11.87
2017-08-21T06:14:49.793Z,12.77
2017-08-21T06:17:18.841Z,13.03
2017-08-21T06:19:47.193Z,12.77
2017-08-21T06:22:15.561Z,10.23
2017-08-21T06:24:44.189Z,13.57
2017-08-21T06:27:13.210Z,13.90
2017-08-21T06:29:41.574Z,12.10
2017-08-21T06:32:09.933Z,10.70
2017-08-21T06:34:38.286Z,15.53
2017-08-21T06:37:06.655Z,14.53
2017-08-21T06:39:34.997Z,12.07
2017-08-21T06:42:03.363Z,17.80
2017-08-21T06:44:31.807Z,16.73
2017-08-21T06:47:00.150Z,12.33
2017-08-21T06:49:28.520Z,14.37
2017-08-21T06:51:56.934Z,16.73
2017-08-21T06:54:25.310Z,13.77
2017-08-21T06:56:53.753Z,16.50
2017-08-21T06:59:22.113Z,13.20
2017-08-21T07:01:50.595Z,15.90
2017-08-21T07:04:18.949Z,20.00
2017-08-21T07:06:47.318Z,17.37
2017-08-21T07:09:15.873Z,11.43
2017-08-21T07:11:44.249Z,16.93
2017-08-21T07:14:12.613Z,13.63
2017-08-21T07:16:41.056Z,16.33
2017-08-21T07:19:09.414Z,18.43
2017-08-21T07:21:37.774Z,20.23
2017-08-21T07:24:06.376Z,17.90
2017-08-21T07:26:34.813Z,16.93
2017-08-21T07:29:03.186Z,15.83
2017-08-21T07:31:31.538Z,13.40
2017-08-21T07:33:59.904Z,12.00
2017-08-21T07:36:28.523Z,27.03
2017-08-21T07:38:56.893Z,12.40
2017-08-21T07:41:25.255Z,15.30
2017-08-21T07:43:53.616Z,11.53
2017-08-21T07:46:21.963Z,11.33
2017-08-21T07:48:50.321Z,10.10
2017-08-21T07:51:19.046Z,17.27
2017-08-21T07:53:47.079Z,15.13
2017-08-21T07:56:15.628Z,16.77
2017-08-21T07:58:44.027Z,16.50
2017-08-21T08:01:12.482Z,16.00
2017-08-21T08:03:40.854Z,14.80
2017-08-21T08:06:09.236Z,14.77
2017-08-21T08:08:37.585Z,14.30
2017-08-21T08:11:05.950Z,12.83
2017-08-21T08:13:34.512Z,12.47
2017-08-21T08:16:02.880Z,16.23
2017-08-21T08:18:31.425Z,13.20
2017-08-21T08:20:59.866Z,12.00
2017-08-21T08:23:28.211Z,11.73
2017-08-21T08:25:56.588Z,13.73
2017-08-21T08:28:24.949Z,14.93
2017-08-21T08:30:53.306Z,11.90
2017-08-21T08:33:21.677Z,12.10
2017-08-21T08:35:50.033Z,9.60
2017-08-21T08:38:18.502Z,13.67
2017-08-21T08:40:46.871Z,9.07
2017-08-21T08:43:15.219Z,8.63
2017-08-21T08:45:43.591Z,15.30
2017-08-21T08:48:11.958Z,7.20
2017-08-21T08:50:40.315Z,8.33
2017-08-21T08:53:08.997Z,13.27
2017-08-21T08:55:37.678Z,6.50
2017-08-21T08:58:06.017Z,4.97
2017-08-21T09:00:34.116Z,7.37
2017-08-21T09:03:02.455Z,8.77
2017-08-21T09:05:31.578Z,10.30
2017-08-21T09:07:59.953Z,11.47
2017-08-21T09:10:28.305Z,5.60
2017-08-21T09:12:56.951Z,9.40
2017-08-21T09:15:25.310Z,6.63
2017-08-21T09:17:53.976Z,6.77
2017-08-21T09:20:22.353Z,6.20
2017-08-21T09:22:50.787Z,8.20
2017-08-21T09:25:19.394Z,4.93
2017-08-21T09:27:48.092Z,7.23
2017-08-21T09:30:16.674Z,9.90
2017-08-21T09:32:45.034Z,4.77
2017-08-21T09:35:13.388Z,6.77
2017-08-21T09:37:41.753Z,12.70
2017-08-21T09:40:09.936Z,11.53
2017-08-21T09:42:38.349Z,6.30
2017-08-21T09:45:07.032Z,5.70
2017-08-21T09:47:35.379Z,5.27
2017-08-21T09:50:03.843Z,8.87
2017-08-21T09:52:32.197Z,9.27
2017-08-21T09:55:00.674Z,5.03
2017-08-21T09:57:29.038Z,4.33
2017-08-21T09:59:57.399Z,8.20
2017-08-21T10:02:25.770Z,7.43
2017-08-21T10:04:54.131Z,7.23
2017-08-21T10:07:22.494Z,5.00
2017-08-21T10:09:51.534Z,9.77
2017-08-21T10:12:20.191Z,5.87
2017-08-21T10:14:48.542Z,8.33
2017-08-21T10:17:16.914Z,4.63
2017-08-21T10:19:45.261Z,7.50
2017-08-21T10:22:13.618Z,8.00
2017-08-21T10:24:42.170Z,7.93
2017-08-21T10:27:10.524Z,7.33
2017-08-21T10:29:38.883Z,6.60
2017-08-21T10:32:07.244Z,4.20
2017-08-21T10:34:35.677Z,6.77
2017-08-21T10:37:04.038Z,5.83
2017-08-21T10:39:32.400Z,11.70
2017-08-21T10:42:00.764Z,6.53
2017-08-21T10:44:29.120Z,4.73
2017-08-21T10:46:57.474Z,5.13
2017-08-21T10:49:26.543Z,4.63
2017-08-21T10:51:54.977Z,4.40
2017-08-21T10:54:23.511Z,4.90
2017-08-21T10:56:51.883Z,7.23
2017-08-21T10:59:20.246Z,6.93
2017-08-21T11:01:48.627Z,4.77
2017-08-21T11:04:17.004Z,5.73
2017-08-21T11:06:45.524Z,4.80
2017-08-21T11:09:13.885Z,6.27
2017-08-21T11:11:42.337Z,7.30
2017-08-21T11:14:10.717Z,3.67
2017-08-21T11:16:39.393Z,5.20
2017-08-21T11:19:07.827Z,5.57
2017-08-21T11:21:36.179Z,9.37
2017-08-21T11:24:04.830Z,6.43
2017-08-21T11:26:33.196Z,5.67
2017-08-21T11:29:01.581Z,4.50
2017-08-21T11:31:29.935Z,3.83
2017-08-21T11:33:59.078Z,4.50
2017-08-21T11:36:27.421Z,4.77
2017-08-21T11:38:55.996Z,4.90
2017-08-21T11:41:24.381Z,13.43
2017-08-21T11:43:52.637Z,4.40
2017-08-21T11:46:21.030Z,6.23
2017-08-21T11:48:49.380Z,3.80
2017-08-21T11:51:17.736Z,5.30
2017-08-21T11:53:46.085Z,5.33
2017-08-21T11:56:14.613Z,4.33
2017-08-21T11:58:42.988Z,3.27
2017-08-21T12:01:12.114Z,8.63
2017-08-21T12:03:41.255Z,5.50
2017-08-21T12:06:09.614Z,8.20
2017-08-21T12:08:37.962Z,7.43
2017-08-21T12:11:06.334Z,6.07
2017-08-21T12:13:34.727Z,3.77
2017-08-21T12:16:03.101Z,8.10
2017-08-21T12:18:31.455Z,5.30
2017-08-21T12:21:00.036Z,6.47
2017-08-21T12:23:28.474Z,3.50
2017-08-21T12:25:57.014Z,3.40
2017-08-21T12:28:25.466Z,5.07
2017-08-21T12:30:53.932Z,3.10
2017-08-21T12:33:22.278Z,4.83
2017-08-21T12:35:50.640Z,6.53
2017-08-21T12:38:18.990Z,4.13
2017-08-21T12:40:47.446Z,5.73
2017-08-21T12:43:15.810Z,4.90
2017-08-21T12:45:44.315Z,5.20
2017-08-21T12:48:12.679Z,5.70
2017-08-21T12:50:41.051Z,5.10
2017-08-21T12:53:09.412Z,6.50
2017-08-21T12:55:37.770Z,3.37
2017-08-21T12:58:06.135Z,5.17
2017-08-21T13:00:34.490Z,4.30
2017-08-21T13:03:03.035Z,5.53
2017-08-21T13:05:31.514Z,3.70
2017-08-21T13:07:59.889Z,3.47
2017-08-21T13:10:28.240Z,4.63
2017-08-21T13:12:57.274Z,3.57
2017-08-21T13:15:25.638Z,5.93
2017-08-21T13:17:54.020Z,5.57
2017-08-21T13:20:22.387Z,5.73
2017-08-21T13:22:50.992Z,5.80
2017-08-21T13:25:19.440Z,4.57
2017-08-21T13:27:47.815Z,5.00
2017-08-21T13:30:16.182Z,3.57
2017-08-21T13:32:44.537Z,5.27
2017-08-21T13:35:12.886Z,3.40
2017-08-21T13:37:41.255Z,4.53
2017-08-21T13:40:09.619Z,8.63
2017-08-21T13:42:38.176Z,4.07
2017-08-21T13:45:06.660Z,5.70
2017-08-21T13:47:35.033Z,3.87
2017-08-21T13:50:03.379Z,3.53
2017-08-21T13:52:31.062Z,5.57
2017-08-21T13:54:59.747Z,7.83
2017-08-21T13:57:28.128Z,5.10
2017-08-21T13:59:56.483Z,5.57
2017-08-21T14:02:24.856Z,5.77
2017-08-21T14:04:53.204Z,3.20
2017-08-21T14:07:21.556Z,4.27
2017-08-21T14:09:49.935Z,3.50
2017-08-21T14:12:19.153Z,3.30
2017-08-21T14:14:47.505Z,5.70
2017-08-21T14:17:15.886Z,4.37
2017-08-21T14:19:44.375Z,4.43
2017-08-21T14:22:12.731Z,4.20
2017-08-21T14:24:41.104Z,7.20
2017-08-21T14:27:09.470Z,6.30
2017-08-21T14:29:37.820Z,7.57
2017-08-21T14:32:06.179Z,4.77
2017-08-21T14:34:34.623Z,5.80
2017-08-21T14:37:02.975Z,5.10
2017-08-21T14:39:31.339Z,4.40
2017-08-21T14:41:59.707Z,6.43
2017-08-21T14:44:28.066Z,5.20
2017-08-21T14:46:56.594Z,4.90
2017-08-21T14:49:24.951Z,6.53
2017-08-21T14:51:53.318Z,6.00
2017-08-21T14:54:21.698Z,5.17
2017-08-21T14:56:50.061Z,4.93
2017-08-21T14:59:18.416Z,7.73
2017-08-21T15:01:47.735Z,4.03
2017-08-21T15:04:16.158Z,6.73
2017-08-21T15:06:44.533Z,6.57
2017-08-21T15:09:13.010Z,8.20
2017-08-21T15:11:42.059Z,10.63
2017-08-21T15:14:10.441Z,6.17
2017-08-21T15:16:38.918Z,5.00
2017-08-21T15:19:07.595Z,3.20
2017-08-21T15:21:36.040Z,4.90
2017-08-21T15:24:04.409Z,6.60
2017-08-21T15:26:33.446Z,6.90
2017-08-21T15:29:02.009Z,6.77
2017-08-21T15:31:30.358Z,4.00
2017-08-21T15:33:58.710Z,5.40
2017-08-21T15:36:27.079Z,5.20
2017-08-21T15:38:55.445Z,6.63
2017-08-21T15:41:23.794Z,5.87
2017-08-21T15:43:52.148Z,9.07
2017-08-21T15:46:20.502Z,6.37
2017-08-21T15:48:48.852Z,2.90
2017-08-21T15:51:17.199Z,6.10
2017-08-21T15:53:45.622Z,5.47
2017-08-21T15:56:13.991Z,3.97
2017-08-21T15:58:42.372Z,6.17
2017-08-21T16:01:10.546Z,5.50
2017-08-21T16:03:38.918Z,3.77
2017-08-21T16:06:07.270Z,7.83
2017-08-21T16:08:35.622Z,5.60
2017-08-21T16:11:03.991Z,8.70
2017-08-21T16:13:32.463Z,4.90
2017-08-21T16:16:00.826Z,5.80
2017-08-21T16:18:29.207Z,4.63
2017-08-21T16:20:59.215Z,8.37
2017-08-21T16:23:27.900Z,7.40
2017-08-21T16:25:56.259Z,10.90
2017-08-21T16:28:24.679Z,7.10
2017-08-21T16:30:53.025Z,4.30
2017-08-21T16:33:21.390Z,6.60
2017-08-21T16:35:49.973Z,6.47
2017-08-21T16:38:18.589Z,4.90
2017-08-21T16:40:46.862Z,4.20
2017-08-21T16:43:15.218Z,5.07
2017-08-21T16:45:43.583Z,3.83
2017-08-21T16:48:11.947Z,5.70
2017-08-21T16:50:40.469Z,6.70
2017-08-21T16:53:08.849Z,7.60
2017-08-21T16:55:37.277Z,3.27
2017-08-21T16:58:06.518Z,7.33
2017-08-21T17:00:34.945Z,5.10
2017-08-21T17:03:03.289Z,3.40
2017-08-21T17:05:31.718Z,3.10
2017-08-21T17:08:00.080Z,7.90
2017-08-21T17:10:28.460Z,8.50
2017-08-21T17:12:57.080Z,8.37
2017-08-21T17:15:25.522Z,7.67
2017-08-21T17:17:53.869Z,5.23
2017-08-21T17:20:21.538Z,6.83
2017-08-21T17:22:50.518Z,3.87
2017-08-21T17:25:18.921Z,5.27
2017-08-21T17:27:47.336Z,4.50
2017-08-21T17:30:15.691Z,7.97
2017-08-21T17:32:44.046Z,3.10
2017-08-21T17:35:12.410Z,4.93
2017-08-21T17:37:41.495Z,4.50
2017-08-21T17:40:09.865Z,3.53
2017-08-21T17:42:38.236Z,5.30
2017-08-21T17:45:06.601Z,4.10
2017-08-21T17:47:34.969Z,6.17
2017-08-21T17:50:03.356Z,6.83
2017-08-21T17:52:31.911Z,3.77
2017-08-21T17:55:00.273Z,4.83
2017-08-21T17:57:28.647Z,3.73
2017-08-21T17:59:57.141Z,6.83
2017-08-21T18:02:25.599Z,5.13
2017-08-21T18:04:53.998Z,2.90
2017-08-21T18:07:22.387Z,4.00
2017-08-21T18:09:50.767Z,3.97
2017-08-21T18:12:18.796Z,5.70
2017-08-21T18:14:47.155Z,3.43
2017-08-21T18:17:15.517Z,4.20
2017-08-21T18:19:43.991Z,3.37
2017-08-21T18:22:12.342Z,3.23
2017-08-21T18:24:40.711Z,3.93
2017-08-21T18:27:09.889Z,5.13
2017-08-21T18:29:38.277Z,3.73
2017-08-21T18:32:06.630Z,6.30
2017-08-21T18:34:35.074Z,4.80
2017-08-21T18:37:03.567Z,6.73
2017-08-21T18:39:32.027Z,5.10
2017-08-21T18:42:01.172Z,5.13
2017-08-21T18:44:29.552Z,4.20
2017-08-21T18:46:57.921Z,6.07
2017-08-21T18:49:26.358Z,8.20
2017-08-21T18:51:54.773Z,5.73
2017-08-21T18:54:23.274Z,3.97
2017-08-21T18:56:51.637Z,6.77
2017-08-21T18:59:20.012Z,4.13
2017-08-21T19:01:48.482Z,4.17
2017-08-21T19:04:16.839Z,6.57
2017-08-21T19:06:45.202Z,5.20
2017-08-21T19:09:13.569Z,7.93
2017-08-21T19:11:41.988Z,7.37
2017-08-21T19:14:10.343Z,13.80
2017-08-21T19:16:38.707Z,15.33
2017-08-21T19:19:07.078Z,14.30
2017-08-21T19:21:35.491Z,13.00
2017-08-21T19:24:03.844Z,14.03
2017-08-21T19:26:32.212Z,9.70
2017-08-21T19:29:00.626Z,8.43
2017-08-21T19:31:29.196Z,8.80
2017-08-21T19:33:57.560Z,6.27
2017-08-21T19:36:25.920Z,10.30
2017-08-21T19:38:54.280Z,6.90
2017-08-21T19:41:22.635Z,5.77
2017-08-21T19:43:51.079Z,7.20
2017-08-21T19:46:19.458Z,14.63
2017-08-21T19:48:47.806Z,9.83
2017-08-21T19:51:17.134Z,7.57
2017-08-21T19:53:45.687Z,9.47
2017-08-21T19:56:14.180Z,6.80
2017-08-21T19:58:42.572Z,9.97
2017-08-21T20:01:10.928Z,7.63
2017-08-21T20:03:39.282Z,8.00
2017-08-21T20:06:07.664Z,8.33
2017-08-21T20:08:36.807Z,9.20
2017-08-21T20:11:05.166Z,10.33
2017-08-21T20:13:33.694Z,8.53
2017-08-21T20:16:02.042Z,17.03
2017-08-21T20:18:30.420Z,7.93
2017-08-21T20:20:58.988Z,7.53
2017-08-21T20:23:27.352Z,8.73
2017-08-21T20:25:55.727Z,8.23
2017-08-21T20:28:24.097Z,7.40
2017-08-21T20:30:52.482Z,4.83
2017-08-21T20:33:20.856Z,5.80
2017-08-21T20:35:49.337Z,11.90
2017-08-21T20:38:18.348Z,13.80
2017-08-21T20:40:46.727Z,8.87
2017-08-21T20:43:15.374Z,10.47
2017-08-21T20:45:43.768Z,7.33
2017-08-21T20:48:12.140Z,7.50
2017-08-21T20:50:40.577Z,5.73
2017-08-21T20:53:08.952Z,6.53
2017-08-21T20:55:37.306Z,8.83
2017-08-21T20:58:05.932Z,8.40
2017-08-21T21:00:34.312Z,7.63
2017-08-21T21:03:02.975Z,9.30
2017-08-21T21:05:31.605Z,7.83
2017-08-21T21:08:00.055Z,7.83
2017-08-21T21:10:28.420Z,9.40
2017-08-21T21:12:56.767Z,9.67
2017-08-21T21:15:25.134Z,10.33
2017-08-21T21:17:53.512Z,12.27
2017-08-21T21:20:21.866Z,9.37
2017-08-21T21:23:25.603Z,9.33
2017-08-21T21:25:53.964Z,8.33
2017-08-21T21:28:22.340Z,7.80
2017-08-21T21:30:50.862Z,10.80
2017-08-21T21:33:19.237Z,17.50
2017-08-21T21:35:47.611Z,11.43
2017-08-21T21:38:15.966Z,10.27
2017-08-21T21:40:44.318Z,9.03
2017-08-21T21:43:12.692Z,12.53
2017-08-21T21:45:41.045Z,12.67
2017-08-21T21:48:09.413Z,9.30
2017-08-21T21:50:37.872Z,10.10
2017-08-21T21:53:06.243Z,11.93
2017-08-21T21:55:34.587Z,10.77
2017-08-21T21:58:02.957Z,10.97
2017-08-21T22:00:31.371Z,8.57
2017-08-21T22:02:59.850Z,7.93
2017-08-21T22:05:28.328Z,9.13
2017-08-21T22:07:56.804Z,10.57
2017-08-21T22:10:25.364Z,13.87
2017-08-21T22:12:53.701Z,7.47
2017-08-21T22:15:22.064Z,10.37
2017-08-21T22:17:50.455Z,12.67
2017-08-21T22:20:18.815Z,6.10
2017-08-21T22:22:47.266Z,10.27
2017-08-21T22:25:15.617Z,7.50
2017-08-21T22:27:44.014Z,9.90
2017-08-21T22:30:12.597Z,11.80
2017-08-21T22:32:41.115Z,10.17
2017-08-21T22:35:09.486Z,11.93
2017-08-21T22:37:38.136Z,7.50
2017-08-21T22:40:06.496Z,8.23
2017-08-21T22:42:34.993Z,10.40
2017-08-21T22:45:03.370Z,9.70
2017-08-21T22:47:31.741Z,8.97
2017-08-21T22:50:00.075Z,8.47
2017-08-21T22:52:28.436Z,7.83
2017-08-21T22:54:56.872Z,8.73
2017-08-21T22:57:25.450Z,11.17
2017-08-21T22:59:53.824Z,11.73
2017-08-21T23:02:22.178Z,13.53
2017-08-21T23:04:50.540Z,6.90
2017-08-21T23:07:19.876Z,8.93
2017-08-21T23:09:48.306Z,10.27
2017-08-21T23:12:16.668Z,11.20
2017-08-21T23:14:45.233Z,10.17
2017-08-21T23:17:13.576Z,8.63
2017-08-21T23:19:41.930Z,12.23
2017-08-21T23:22:10.436Z,10.63
2017-08-21T23:24:39.569Z,9.47
2017-08-21T23:27:08.111Z,11.63
2017-08-21T23:29:36.463Z,10.33
2017-08-21T23:32:04.923Z,14.23
2017-08-21T23:34:33.484Z,9.43
2017-08-21T23:37:01.846Z,10.03
2017-08-21T23:39:30.468Z,9.17
2017-08-21T23:41:58.976Z,11.30
2017-08-21T23:44:27.405Z,14.67
2017-08-21T23:46:55.762Z,9.47
2017-08-21T23:49:24.413Z,8.53
2017-08-21T23:51:52.754Z,15.87
2017-08-21T23:54:22.078Z,11.17
2017-08-21T23:56:50.460Z,12.17
2017-08-21T23:59:18.818Z,14.63
